sensor_id;sensor_type;location;lat;lon;timestamp;P1;durP1;ratioP1;P2;durP2;ratioP2
14876;SDS011;69691;48.172;17.070;2023-09-08T00:01:57;18.38;;;10.40;;
14876;SDS011;69691;48.172;17.070;2023-09-08T00:04:23;17.23;;;9.77;;
14876;SDS011;69691;48.172;17.070;2023-09-08T00:06:49;14.70;;;10.27;;
14876;SDS011;69691;48.172;17.070;2023-09-08T00:09:15;17.45;;;10.10;;
14876;SDS011;69691;48.172;17.070;2023-09-08T00:11:41;16.27;;;11.18;;
14876;SDS011;69691;48.172;17.070;2023-09-08T00:14:06;17.13;;;11.50;;
14876;SDS011;69691;48.172;17.070;2023-09-08T00:16:32;14.32;;;10.57;;
14876;SDS011;69691;48.172;17.070;2023-09-08T00:18:58;19.25;;;11.60;;
14876;SDS011;69691;48.172;17.070;2023-09-08T00:21:24;18.40;;;10.75;;
14876;SDS011;69691;48.172;17.070;2023-09-08T00:23:54;15.15;;;11.10;;
14876;SDS011;69691;48.172;17.070;2023-09-08T00:26:20;19.23;;;10.57;;
14876;SDS011;69691;48.172;17.070;2023-09-08T00:28:47;16.38;;;11.45;;
14876;SDS011;69691;48.172;17.070;2023-09-08T00:31:13;20.80;;;11.90;;
14876;SDS011;69691;48.172;17.070;2023-09-08T00:33:39;17.27;;;11.25;;
14876;SDS011;69691;48.172;17.070;2023-09-08T00:36:06;18.83;;;11.10;;
14876;SDS011;69691;48.172;17.070;2023-09-08T00:38:31;21.33;;;11.93;;
14876;SDS011;69691;48.172;17.070;2023-09-08T00:40:57;19.20;;;11.68;;
14876;SDS011;69691;48.172;17.070;2023-09-08T00:43:25;19.17;;;11.25;;
14876;SDS011;69691;48.172;17.070;2023-09-08T00:45:52;15.10;;;12.20;;
14876;SDS011;69691;48.172;17.070;2023-09-08T00:48:20;12.93;;;10.50;;
14876;SDS011;69691;48.172;17.070;2023-09-08T00:50:46;15.25;;;11.02;;
14876;SDS011;69691;48.172;17.070;2023-09-08T00:53:12;17.02;;;11.65;;
14876;SDS011;69691;48.172;17.070;2023-09-08T00:55:39;16.45;;;10.63;;
14876;SDS011;69691;48.172;17.070;2023-09-08T00:58:06;15.73;;;11.10;;
14876;SDS011;69691;48.172;17.070;2023-09-08T01:00:32;12.05;;;10.27;;
14876;SDS011;69691;48.172;17.070;2023-09-08T01:02:58;13.52;;;10.20;;
14876;SDS011;69691;48.172;17.070;2023-09-08T01:05:25;18.02;;;10.95;;
14876;SDS011;69691;48.172;17.070;2023-09-08T01:07:51;12.27;;;9.77;;
14876;SDS011;69691;48.172;17.070;2023-09-08T01:10:18;18.83;;;11.30;;
14876;SDS011;69691;48.172;17.070;2023-09-08T01:12:44;14.20;;;10.65;;
14876;SDS011;69691;48.172;17.070;2023-09-08T01:15:10;12.60;;;10.27;;
14876;SDS011;69691;48.172;17.070;2023-09-08T01:17:36;13.60;;;9.55;;
14876;SDS011;69691;48.172;17.070;2023-09-08T01:20:04;14.75;;;10.40;;
14876;SDS011;69691;48.172;17.070;2023-09-08T01:23:01;17.05;;;10.18;;
14876;SDS011;69691;48.172;17.070;2023-09-08T01:25:32;11.73;;;10.43;;
14876;SDS011;69691;48.172;17.070;2023-09-08T01:28:01;14.90;;;9.48;;
14876;SDS011;69691;48.172;17.070;2023-09-08T01:30:29;12.10;;;9.50;;
14876;SDS011;69691;48.172;17.070;2023-09-08T01:32:58;16.95;;;10.95;;
14876;SDS011;69691;48.172;17.070;2023-09-08T01:35:25;13.65;;;9.32;;
14876;SDS011;69691;48.172;17.070;2023-09-08T01:37:51;12.13;;;10.45;;
14876;SDS011;69691;48.172;17.070;2023-09-08T01:40:17;15.82;;;11.45;;
14876;SDS011;69691;48.172;17.070;2023-09-08T01:42:44;18.27;;;10.98;;
14876;SDS011;69691;48.172;17.070;2023-09-08T01:45:10;14.27;;;10.32;;
14876;SDS011;69691;48.172;17.070;2023-09-08T01:47:37;11.35;;;10.25;;
14876;SDS011;69691;48.172;17.070;2023-09-08T01:50:03;17.15;;;11.38;;
14876;SDS011;69691;48.172;17.070;2023-09-08T01:52:29;14.27;;;10.55;;
14876;SDS011;69691;48.172;17.070;2023-09-08T01:54:55;12.48;;;9.55;;
14876;SDS011;69691;48.172;17.070;2023-09-08T01:57:21;13.07;;;10.35;;
14876;SDS011;69691;48.172;17.070;2023-09-08T01:59:47;15.55;;;9.73;;
14876;SDS011;69691;48.172;17.070;2023-09-08T02:02:13;14.18;;;10.45;;
14876;SDS011;69691;48.172;17.070;2023-09-08T02:04:40;13.30;;;10.00;;
14876;SDS011;69691;48.172;17.070;2023-09-08T02:07:05;15.15;;;10.07;;
14876;SDS011;69691;48.172;17.070;2023-09-08T02:09:35;12.70;;;10.27;;
14876;SDS011;69691;48.172;17.070;2023-09-08T02:12:03;13.75;;;10.48;;
14876;SDS011;69691;48.172;17.070;2023-09-08T02:14:29;16.13;;;10.43;;
14876;SDS011;69691;48.172;17.070;2023-09-08T02:16:55;11.13;;;9.48;;
14876;SDS011;69691;48.172;17.070;2023-09-08T02:19:23;12.57;;;9.82;;
14876;SDS011;69691;48.172;17.070;2023-09-08T02:21:48;13.48;;;10.55;;
14876;SDS011;69691;48.172;17.070;2023-09-08T02:24:14;15.65;;;10.43;;
14876;SDS011;69691;48.172;17.070;2023-09-08T02:26:41;11.90;;;10.60;;
14876;SDS011;69691;48.172;17.070;2023-09-08T02:29:07;16.92;;;10.60;;
14876;SDS011;69691;48.172;17.070;2023-09-08T02:31:33;14.98;;;9.90;;
14876;SDS011;69691;48.172;17.070;2023-09-08T02:34:02;15.65;;;10.32;;
14876;SDS011;69691;48.172;17.070;2023-09-08T02:36:29;14.23;;;10.40;;
14876;SDS011;69691;48.172;17.070;2023-09-08T02:38:56;15.50;;;9.82;;
14876;SDS011;69691;48.172;17.070;2023-09-08T02:41:22;12.13;;;10.38;;
14876;SDS011;69691;48.172;17.070;2023-09-08T02:43:48;14.48;;;10.75;;
14876;SDS011;69691;48.172;17.070;2023-09-08T02:46:16;15.80;;;10.95;;
14876;SDS011;69691;48.172;17.070;2023-09-08T02:48:42;17.02;;;10.73;;
14876;SDS011;69691;48.172;17.070;2023-09-08T02:51:08;15.75;;;10.88;;
14876;SDS011;69691;48.172;17.070;2023-09-08T02:53:33;12.60;;;10.55;;
14876;SDS011;69691;48.172;17.070;2023-09-08T02:55:59;12.60;;;10.10;;
14876;SDS011;69691;48.172;17.070;2023-09-08T02:58:26;14.35;;;10.90;;
14876;SDS011;69691;48.172;17.070;2023-09-08T03:00:52;16.60;;;10.88;;
14876;SDS011;69691;48.172;17.070;2023-09-08T03:03:19;12.23;;;9.90;;
14876;SDS011;69691;48.172;17.070;2023-09-08T03:05:45;11.68;;;9.48;;
14876;SDS011;69691;48.172;17.070;2023-09-08T03:08:12;15.18;;;10.18;;
14876;SDS011;69691;48.172;17.070;2023-09-08T03:10:38;12.45;;;10.85;;
14876;SDS011;69691;48.172;17.070;2023-09-08T03:13:05;11.18;;;9.77;;
14876;SDS011;69691;48.172;17.070;2023-09-08T03:15:31;17.02;;;9.30;;
14876;SDS011;69691;48.172;17.070;2023-09-08T03:17:58;13.98;;;10.23;;
14876;SDS011;69691;48.172;17.070;2023-09-08T03:20:25;13.73;;;10.93;;
14876;SDS011;69691;48.172;17.070;2023-09-08T03:22:51;13.52;;;9.68;;
14876;SDS011;69691;48.172;17.070;2023-09-08T03:25:18;15.50;;;9.27;;
14876;SDS011;69691;48.172;17.070;2023-09-08T03:27:44;11.57;;;9.88;;
14876;SDS011;69691;48.172;17.070;2023-09-08T03:30:10;16.60;;;10.20;;
14876;SDS011;69691;48.172;17.070;2023-09-08T03:32:37;11.70;;;9.75;;
14876;SDS011;69691;48.172;17.070;2023-09-08T03:35:03;18.77;;;10.50;;
14876;SDS011;69691;48.172;17.070;2023-09-08T03:37:36;11.25;;;9.55;;
14876;SDS011;69691;48.172;17.070;2023-09-08T03:40:03;14.38;;;10.02;;
14876;SDS011;69691;48.172;17.070;2023-09-08T03:42:30;10.65;;;9.50;;
14876;SDS011;69691;48.172;17.070;2023-09-08T03:44:56;11.93;;;9.05;;
14876;SDS011;69691;48.172;17.070;2023-09-08T03:47:23;12.63;;;9.75;;
14876;SDS011;69691;48.172;17.070;2023-09-08T03:49:50;11.90;;;9.90;;
14876;SDS011;69691;48.172;17.070;2023-09-08T03:52:16;10.23;;;9.23;;
14876;SDS011;69691;48.172;17.070;2023-09-08T03:54:41;12.63;;;9.43;;
14876;SDS011;69691;48.172;17.070;2023-09-08T03:57:09;13.50;;;9.00;;
14876;SDS011;69691;48.172;17.070;2023-09-08T03:59:34;13.18;;;9.98;;
14876;SDS011;69691;48.172;17.070;2023-09-08T04:02:00;12.23;;;9.75;;
14876;SDS011;69691;48.172;17.070;2023-09-08T04:04:26;10.77;;;9.38;;
14876;SDS011;69691;48.172;17.070;2023-09-08T04:06:52;13.15;;;9.90;;
14876;SDS011;69691;48.172;17.070;2023-09-08T04:09:18;10.52;;;8.35;;
14876;SDS011;69691;48.172;17.070;2023-09-08T04:11:44;13.75;;;8.55;;
14876;SDS011;69691;48.172;17.070;2023-09-08T04:14:09;10.98;;;8.25;;
14876;SDS011;69691;48.172;17.070;2023-09-08T04:16:35;10.80;;;8.30;;
14876;SDS011;69691;48.172;17.070;2023-09-08T04:19:01;13.48;;;8.43;;
14876;SDS011;69691;48.172;17.070;2023-09-08T04:21:27;10.65;;;7.63;;
14876;SDS011;69691;48.172;17.070;2023-09-08T04:23:53;12.63;;;9.35;;
14876;SDS011;69691;48.172;17.070;2023-09-08T04:26:19;14.57;;;8.55;;
14876;SDS011;69691;48.172;17.070;2023-09-08T04:28:44;12.77;;;8.93;;
14876;SDS011;69691;48.172;17.070;2023-09-08T04:31:10;12.10;;;8.93;;
14876;SDS011;69691;48.172;17.070;2023-09-08T04:33:38;13.50;;;9.40;;
14876;SDS011;69691;48.172;17.070;2023-09-08T04:36:04;14.52;;;8.35;;
14876;SDS011;69691;48.172;17.070;2023-09-08T04:38:30;13.40;;;8.65;;
14876;SDS011;69691;48.172;17.070;2023-09-08T04:40:55;13.77;;;8.70;;
14876;SDS011;69691;48.172;17.070;2023-09-08T04:43:21;11.43;;;8.48;;
14876;SDS011;69691;48.172;17.070;2023-09-08T04:45:47;17.15;;;8.15;;
14876;SDS011;69691;48.172;17.070;2023-09-08T04:48:13;11.30;;;8.55;;
14876;SDS011;69691;48.172;17.070;2023-09-08T04:50:39;12.68;;;8.45;;
14876;SDS011;69691;48.172;17.070;2023-09-08T04:53:05;9.70;;;7.40;;
14876;SDS011;69691;48.172;17.070;2023-09-08T04:55:31;15.13;;;8.65;;
14876;SDS011;69691;48.172;17.070;2023-09-08T04:57:57;16.90;;;8.55;;
14876;SDS011;69691;48.172;17.070;2023-09-08T05:00:24;10.57;;;8.18;;
14876;SDS011;69691;48.172;17.070;2023-09-08T05:02:51;18.05;;;8.00;;
14876;SDS011;69691;48.172;17.070;2023-09-08T05:05:16;14.13;;;8.10;;
14876;SDS011;69691;48.172;17.070;2023-09-08T05:07:42;9.80;;;7.40;;
14876;SDS011;69691;48.172;17.070;2023-09-08T05:10:08;14.43;;;8.35;;
14876;SDS011;69691;48.172;17.070;2023-09-08T05:12:37;11.25;;;7.35;;
14876;SDS011;69691;48.172;17.070;2023-09-08T05:15:03;13.00;;;8.40;;
14876;SDS011;69691;48.172;17.070;2023-09-08T05:17:37;18.23;;;7.63;;
14876;SDS011;69691;48.172;17.070;2023-09-08T05:20:03;11.48;;;7.63;;
14876;SDS011;69691;48.172;17.070;2023-09-08T05:22:30;13.05;;;7.97;;
14876;SDS011;69691;48.172;17.070;2023-09-08T05:24:56;11.65;;;8.23;;
14876;SDS011;69691;48.172;17.070;2023-09-08T05:27:22;13.43;;;8.50;;
14876;SDS011;69691;48.172;17.070;2023-09-08T05:29:48;12.70;;;8.07;;
14876;SDS011;69691;48.172;17.070;2023-09-08T05:32:14;11.25;;;8.00;;
14876;SDS011;69691;48.172;17.070;2023-09-08T05:34:40;11.80;;;7.70;;
14876;SDS011;69691;48.172;17.070;2023-09-08T05:37:06;11.73;;;7.45;;
14876;SDS011;69691;48.172;17.070;2023-09-08T05:39:32;11.98;;;7.70;;
14876;SDS011;69691;48.172;17.070;2023-09-08T05:41:59;12.45;;;7.82;;
14876;SDS011;69691;48.172;17.070;2023-09-08T05:44:25;13.20;;;8.00;;
14876;SDS011;69691;48.172;17.070;2023-09-08T05:46:51;13.25;;;8.00;;
14876;SDS011;69691;48.172;17.070;2023-09-08T05:49:17;11.00;;;7.22;;
14876;SDS011;69691;48.172;17.070;2023-09-08T05:51:44;15.88;;;8.57;;
14876;SDS011;69691;48.172;17.070;2023-09-08T05:54:11;16.15;;;7.80;;
14876;SDS011;69691;48.172;17.070;2023-09-08T05:56:37;9.98;;;8.02;;
14876;SDS011;69691;48.172;17.070;2023-09-08T05:59:04;9.38;;;7.55;;
14876;SDS011;69691;48.172;17.070;2023-09-08T06:01:30;9.98;;;7.70;;
14876;SDS011;69691;48.172;17.070;2023-09-08T06:03:58;15.85;;;7.38;;
14876;SDS011;69691;48.172;17.070;2023-09-08T06:06:27;9.15;;;7.65;;
14876;SDS011;69691;48.172;17.070;2023-09-08T06:08:53;12.50;;;8.32;;
14876;SDS011;69691;48.172;17.070;2023-09-08T06:11:19;10.38;;;7.80;;
14876;SDS011;69691;48.172;17.070;2023-09-08T06:13:46;12.18;;;7.38;;
14876;SDS011;69691;48.172;17.070;2023-09-08T06:16:12;13.10;;;8.05;;
14876;SDS011;69691;48.172;17.070;2023-09-08T06:18:38;10.73;;;8.00;;
14876;SDS011;69691;48.172;17.070;2023-09-08T06:21:09;11.30;;;7.80;;
14876;SDS011;69691;48.172;17.070;2023-09-08T06:23:35;10.18;;;8.15;;
14876;SDS011;69691;48.172;17.070;2023-09-08T06:26:01;14.25;;;7.82;;
14876;SDS011;69691;48.172;17.070;2023-09-08T06:28:30;13.63;;;7.75;;
14876;SDS011;69691;48.172;17.070;2023-09-08T06:30:57;10.82;;;7.18;;
14876;SDS011;69691;48.172;17.070;2023-09-08T06:33:23;10.55;;;7.53;;
14876;SDS011;69691;48.172;17.070;2023-09-08T06:35:49;15.73;;;8.27;;
14876;SDS011;69691;48.172;17.070;2023-09-08T06:38:16;18.88;;;8.43;;
14876;SDS011;69691;48.172;17.070;2023-09-08T06:40:42;9.07;;;8.00;;
14876;SDS011;69691;48.172;17.070;2023-09-08T06:43:08;15.18;;;7.88;;
14876;SDS011;69691;48.172;17.070;2023-09-08T06:45:42;10.80;;;7.70;;
14876;SDS011;69691;48.172;17.070;2023-09-08T06:48:07;11.93;;;7.90;;
14876;SDS011;69691;48.172;17.070;2023-09-08T06:50:34;11.95;;;8.57;;
14876;SDS011;69691;48.172;17.070;2023-09-08T06:53:00;12.15;;;8.70;;
14876;SDS011;69691;48.172;17.070;2023-09-08T06:55:26;9.75;;;7.75;;
14876;SDS011;69691;48.172;17.070;2023-09-08T06:57:52;10.63;;;7.57;;
14876;SDS011;69691;48.172;17.070;2023-09-08T07:00:18;10.65;;;7.93;;
14876;SDS011;69691;48.172;17.070;2023-09-08T07:02:46;14.18;;;8.05;;
14876;SDS011;69691;48.172;17.070;2023-09-08T07:05:12;14.27;;;8.38;;
14876;SDS011;69691;48.172;17.070;2023-09-08T07:07:38;13.35;;;8.75;;
14876;SDS011;69691;48.172;17.070;2023-09-08T07:10:05;9.88;;;7.13;;
14876;SDS011;69691;48.172;17.070;2023-09-08T07:12:32;12.45;;;8.25;;
14876;SDS011;69691;48.172;17.070;2023-09-08T07:14:58;13.90;;;8.45;;
14876;SDS011;69691;48.172;17.070;2023-09-08T07:17:25;12.55;;;8.00;;
14876;SDS011;69691;48.172;17.070;2023-09-08T07:19:52;10.48;;;8.10;;
14876;SDS011;69691;48.172;17.070;2023-09-08T07:22:19;12.13;;;7.65;;
14876;SDS011;69691;48.172;17.070;2023-09-08T07:24:45;8.85;;;7.68;;
14876;SDS011;69691;48.172;17.070;2023-09-08T07:27:12;11.88;;;7.88;;
14876;SDS011;69691;48.172;17.070;2023-09-08T07:29:40;13.93;;;8.05;;
14876;SDS011;69691;48.172;17.070;2023-09-08T07:32:07;12.30;;;8.38;;
14876;SDS011;69691;48.172;17.070;2023-09-08T07:34:33;13.68;;;8.63;;
14876;SDS011;69691;48.172;17.070;2023-09-08T07:37:00;11.82;;;8.38;;
14876;SDS011;69691;48.172;17.070;2023-09-08T07:39:27;12.30;;;8.30;;
14876;SDS011;69691;48.172;17.070;2023-09-08T07:41:53;12.63;;;8.25;;
14876;SDS011;69691;48.172;17.070;2023-09-08T07:44:21;11.93;;;7.78;;
14876;SDS011;69691;48.172;17.070;2023-09-08T07:46:48;16.27;;;8.07;;
14876;SDS011;69691;48.172;17.070;2023-09-08T07:49:15;15.57;;;7.97;;
14876;SDS011;69691;48.172;17.070;2023-09-08T07:51:43;16.60;;;8.95;;
14876;SDS011;69691;48.172;17.070;2023-09-08T07:54:09;12.82;;;8.30;;
14876;SDS011;69691;48.172;17.070;2023-09-08T07:56:35;14.68;;;8.40;;
14876;SDS011;69691;48.172;17.070;2023-09-08T07:59:01;10.38;;;8.43;;
14876;SDS011;69691;48.172;17.070;2023-09-08T08:01:27;14.77;;;8.70;;
14876;SDS011;69691;48.172;17.070;2023-09-08T08:03:53;10.13;;;8.07;;
14876;SDS011;69691;48.172;17.070;2023-09-08T08:06:19;13.02;;;8.38;;
14876;SDS011;69691;48.172;17.070;2023-09-08T08:08:45;11.50;;;8.60;;
14876;SDS011;69691;48.172;17.070;2023-09-08T08:11:14;13.68;;;8.55;;
14876;SDS011;69691;48.172;17.070;2023-09-08T08:13:43;13.50;;;8.50;;
14876;SDS011;69691;48.172;17.070;2023-09-08T08:16:09;12.15;;;8.93;;
14876;SDS011;69691;48.172;17.070;2023-09-08T08:18:35;14.55;;;10.02;;
14876;SDS011;69691;48.172;17.070;2023-09-08T08:21:00;14.88;;;10.70;;
14876;SDS011;69691;48.172;17.070;2023-09-08T08:23:28;13.95;;;9.52;;
14876;SDS011;69691;48.172;17.070;2023-09-08T08:25:56;10.77;;;9.68;;
14876;SDS011;69691;48.172;17.070;2023-09-08T08:28:22;13.32;;;8.65;;
14876;SDS011;69691;48.172;17.070;2023-09-08T08:30:49;14.88;;;9.18;;
14876;SDS011;69691;48.172;17.070;2023-09-08T08:33:16;12.35;;;8.68;;
14876;SDS011;69691;48.172;17.070;2023-09-08T08:35:48;13.23;;;8.82;;
14876;SDS011;69691;48.172;17.070;2023-09-08T08:38:18;10.98;;;8.98;;
14876;SDS011;69691;48.172;17.070;2023-09-08T08:40:44;11.30;;;8.55;;
14876;SDS011;69691;48.172;17.070;2023-09-08T08:43:10;12.10;;;8.95;;
14876;SDS011;69691;48.172;17.070;2023-09-08T08:45:37;11.50;;;8.80;;
14876;SDS011;69691;48.172;17.070;2023-09-08T08:48:04;13.68;;;8.88;;
14876;SDS011;69691;48.172;17.070;2023-09-08T08:50:31;14.43;;;8.60;;
14876;SDS011;69691;48.172;17.070;2023-09-08T08:52:58;16.27;;;9.10;;
14876;SDS011;69691;48.172;17.070;2023-09-08T08:55:25;13.98;;;8.45;;
14876;SDS011;69691;48.172;17.070;2023-09-08T08:57:51;13.95;;;8.70;;
14876;SDS011;69691;48.172;17.070;2023-09-08T09:00:18;14.10;;;8.55;;
14876;SDS011;69691;48.172;17.070;2023-09-08T09:02:44;18.98;;;9.02;;
14876;SDS011;69691;48.172;17.070;2023-09-08T09:05:14;22.02;;;8.60;;
14876;SDS011;69691;48.172;17.070;2023-09-08T09:07:43;18.45;;;9.23;;
14876;SDS011;69691;48.172;17.070;2023-09-08T09:10:09;13.73;;;8.63;;
14876;SDS011;69691;48.172;17.070;2023-09-08T09:12:36;13.43;;;9.07;;
14876;SDS011;69691;48.172;17.070;2023-09-08T09:15:06;13.60;;;9.45;;
14876;SDS011;69691;48.172;17.070;2023-09-08T09:17:33;15.60;;;9.55;;
14876;SDS011;69691;48.172;17.070;2023-09-08T09:20:11;11.85;;;8.18;;
14876;SDS011;69691;48.172;17.070;2023-09-08T09:22:45;19.75;;;9.57;;
14876;SDS011;69691;48.172;17.070;2023-09-08T09:25:24;11.13;;;9.00;;
14876;SDS011;69691;48.172;17.070;2023-09-08T09:27:55;16.02;;;9.30;;
14876;SDS011;69691;48.172;17.070;2023-09-08T09:30:24;14.50;;;9.18;;
14876;SDS011;69691;48.172;17.070;2023-09-08T09:33:00;14.10;;;9.00;;
14876;SDS011;69691;48.172;17.070;2023-09-08T09:35:39;16.40;;;9.40;;
14876;SDS011;69691;48.172;17.070;2023-09-08T09:38:13;13.35;;;9.27;;
14876;SDS011;69691;48.172;17.070;2023-09-08T09:40:40;9.95;;;8.80;;
14876;SDS011;69691;48.172;17.070;2023-09-08T09:43:10;17.92;;;9.70;;
14876;SDS011;69691;48.172;17.070;2023-09-08T09:45:47;15.45;;;8.38;;
14876;SDS011;69691;48.172;17.070;2023-09-08T09:48:13;9.77;;;8.48;;
14876;SDS011;69691;48.172;17.070;2023-09-08T09:50:40;18.58;;;8.95;;
14876;SDS011;69691;48.172;17.070;2023-09-08T09:53:12;17.88;;;8.85;;
14876;SDS011;69691;48.172;17.070;2023-09-08T09:55:41;15.00;;;8.07;;
14876;SDS011;69691;48.172;17.070;2023-09-08T09:58:09;15.45;;;8.63;;
14876;SDS011;69691;48.172;17.070;2023-09-08T10:00:36;16.52;;;8.15;;
14876;SDS011;69691;48.172;17.070;2023-09-08T10:03:05;16.52;;;9.40;;
14876;SDS011;69691;48.172;17.070;2023-09-08T10:05:32;15.10;;;9.02;;
14876;SDS011;69691;48.172;17.070;2023-09-08T10:07:59;12.43;;;8.38;;
14876;SDS011;69691;48.172;17.070;2023-09-08T10:10:26;14.38;;;8.45;;
14876;SDS011;69691;48.172;17.070;2023-09-08T10:12:54;13.90;;;8.63;;
14876;SDS011;69691;48.172;17.070;2023-09-08T10:15:23;15.73;;;9.52;;
14876;SDS011;69691;48.172;17.070;2023-09-08T10:17:53;12.00;;;8.88;;
14876;SDS011;69691;48.172;17.070;2023-09-08T10:20:25;10.65;;;8.07;;
14876;SDS011;69691;48.172;17.070;2023-09-08T10:23:13;18.42;;;8.70;;
14876;SDS011;69691;48.172;17.070;2023-09-08T10:25:50;15.07;;;8.02;;
14876;SDS011;69691;48.172;17.070;2023-09-08T10:28:22;11.50;;;8.10;;
14876;SDS011;69691;48.172;17.070;2023-09-08T10:30:49;15.32;;;8.77;;
14876;SDS011;69691;48.172;17.070;2023-09-08T10:33:15;12.95;;;8.32;;
14876;SDS011;69691;48.172;17.070;2023-09-08T10:35:43;14.18;;;8.05;;
14876;SDS011;69691;48.172;17.070;2023-09-08T10:38:25;18.45;;;8.63;;
14876;SDS011;69691;48.172;17.070;2023-09-08T10:43:44;11.45;;;7.70;;
14876;SDS011;69691;48.172;17.070;2023-09-08T10:46:21;11.93;;;7.68;;
14876;SDS011;69691;48.172;17.070;2023-09-08T10:48:49;11.05;;;7.75;;
14876;SDS011;69691;48.172;17.070;2023-09-08T10:51:16;11.25;;;7.93;;
14876;SDS011;69691;48.172;17.070;2023-09-08T10:53:42;25.88;;;9.10;;
14876;SDS011;69691;48.172;17.070;2023-09-08T10:56:12;15.38;;;7.80;;
14876;SDS011;69691;48.172;17.070;2023-09-08T10:58:37;9.80;;;8.10;;
14876;SDS011;69691;48.172;17.070;2023-09-08T11:01:06;10.98;;;8.18;;
14876;SDS011;69691;48.172;17.070;2023-09-08T11:06:05;10.55;;;8.57;;
14876;SDS011;69691;48.172;17.070;2023-09-08T11:08:32;12.20;;;8.50;;
14876;SDS011;69691;48.172;17.070;2023-09-08T11:10:59;10.15;;;7.65;;
14876;SDS011;69691;48.172;17.070;2023-09-08T11:13:28;13.90;;;7.65;;
14876;SDS011;69691;48.172;17.070;2023-09-08T11:15:54;15.25;;;7.38;;
14876;SDS011;69691;48.172;17.070;2023-09-08T11:18:29;8.13;;;7.00;;
14876;SDS011;69691;48.172;17.070;2023-09-08T11:20:56;16.30;;;8.30;;
14876;SDS011;69691;48.172;17.070;2023-09-08T11:23:23;10.20;;;7.90;;
14876;SDS011;69691;48.172;17.070;2023-09-08T11:25:50;13.35;;;7.97;;
14876;SDS011;69691;48.172;17.070;2023-09-08T11:28:17;12.70;;;7.22;;
14876;SDS011;69691;48.172;17.070;2023-09-08T11:30:48;15.48;;;7.30;;
14876;SDS011;69691;48.172;17.070;2023-09-08T11:33:15;14.35;;;7.75;;
14876;SDS011;69691;48.172;17.070;2023-09-08T11:35:50;11.77;;;7.93;;
14876;SDS011;69691;48.172;17.070;2023-09-08T11:38:18;8.73;;;7.82;;
14876;SDS011;69691;48.172;17.070;2023-09-08T11:40:49;10.43;;;8.32;;
14876;SDS011;69691;48.172;17.070;2023-09-08T11:43:15;9.82;;;8.30;;
14876;SDS011;69691;48.172;17.070;2023-09-08T11:45:41;10.27;;;8.05;;
14876;SDS011;69691;48.172;17.070;2023-09-08T11:48:09;14.38;;;8.63;;
14876;SDS011;69691;48.172;17.070;2023-09-08T11:50:35;16.63;;;8.82;;
14876;SDS011;69691;48.172;17.070;2023-09-08T11:53:01;9.20;;;8.30;;
14876;SDS011;69691;48.172;17.070;2023-09-08T11:55:28;14.75;;;8.80;;
14876;SDS011;69691;48.172;17.070;2023-09-08T11:57:54;8.77;;;7.72;;
14876;SDS011;69691;48.172;17.070;2023-09-08T12:00:26;10.00;;;8.13;;
14876;SDS011;69691;48.172;17.070;2023-09-08T12:02:53;10.18;;;8.18;;
14876;SDS011;69691;48.172;17.070;2023-09-08T12:05:23;11.15;;;8.07;;
14876;SDS011;69691;48.172;17.070;2023-09-08T12:07:53;9.40;;;7.35;;
14876;SDS011;69691;48.172;17.070;2023-09-08T12:10:21;9.15;;;8.23;;
14876;SDS011;69691;48.172;17.070;2023-09-08T12:12:52;10.07;;;7.70;;
14876;SDS011;69691;48.172;17.070;2023-09-08T12:15:30;11.27;;;7.68;;
14876;SDS011;69691;48.172;17.070;2023-09-08T12:18:17;12.38;;;8.30;;
14876;SDS011;69691;48.172;17.070;2023-09-08T12:20:43;11.50;;;8.15;;
14876;SDS011;69691;48.172;17.070;2023-09-08T12:23:20;10.85;;;8.15;;
14876;SDS011;69691;48.172;17.070;2023-09-08T12:25:48;9.23;;;8.13;;
14876;SDS011;69691;48.172;17.070;2023-09-08T12:28:16;10.82;;;7.40;;
14876;SDS011;69691;48.172;17.070;2023-09-08T12:30:44;9.15;;;7.13;;
14876;SDS011;69691;48.172;17.070;2023-09-08T12:33:10;10.15;;;7.45;;
14876;SDS011;69691;48.172;17.070;2023-09-08T12:35:38;15.05;;;6.45;;
14876;SDS011;69691;48.172;17.070;2023-09-08T12:38:04;8.13;;;7.32;;
14876;SDS011;69691;48.172;17.070;2023-09-08T12:40:33;11.88;;;7.28;;
14876;SDS011;69691;48.172;17.070;2023-09-08T12:43:01;11.23;;;7.30;;
14876;SDS011;69691;48.172;17.070;2023-09-08T12:45:28;11.05;;;7.50;;
14876;SDS011;69691;48.172;17.070;2023-09-08T12:47:58;8.48;;;7.60;;
14876;SDS011;69691;48.172;17.070;2023-09-08T12:50:29;12.52;;;8.13;;
14876;SDS011;69691;48.172;17.070;2023-09-08T12:52:55;8.98;;;6.68;;
14876;SDS011;69691;48.172;17.070;2023-09-08T12:55:22;11.88;;;7.45;;
14876;SDS011;69691;48.172;17.070;2023-09-08T12:57:49;10.95;;;7.80;;
14876;SDS011;69691;48.172;17.070;2023-09-08T13:00:19;8.55;;;7.63;;
14876;SDS011;69691;48.172;17.070;2023-09-08T13:02:47;9.27;;;6.70;;
14876;SDS011;69691;48.172;17.070;2023-09-08T13:05:13;12.10;;;7.63;;
14876;SDS011;69691;48.172;17.070;2023-09-08T13:07:39;10.25;;;7.50;;
14876;SDS011;69691;48.172;17.070;2023-09-08T13:10:06;8.45;;;7.53;;
14876;SDS011;69691;48.172;17.070;2023-09-08T13:12:32;13.80;;;7.05;;
14876;SDS011;69691;48.172;17.070;2023-09-08T13:14:58;13.05;;;7.82;;
14876;SDS011;69691;48.172;17.070;2023-09-08T13:17:24;9.40;;;7.07;;
14876;SDS011;69691;48.172;17.070;2023-09-08T13:19:50;13.98;;;7.43;;
14876;SDS011;69691;48.172;17.070;2023-09-08T13:22:16;8.15;;;7.13;;
14876;SDS011;69691;48.172;17.070;2023-09-08T13:24:42;9.77;;;7.05;;
14876;SDS011;69691;48.172;17.070;2023-09-08T13:27:08;7.80;;;6.60;;
14876;SDS011;69691;48.172;17.070;2023-09-08T13:29:34;10.40;;;6.03;;
14876;SDS011;69691;48.172;17.070;2023-09-08T13:31:59;13.70;;;6.72;;
14876;SDS011;69691;48.172;17.070;2023-09-08T13:34:25;7.93;;;6.50;;
14876;SDS011;69691;48.172;17.070;2023-09-08T13:36:51;9.05;;;6.47;;
14876;SDS011;69691;48.172;17.070;2023-09-08T13:39:20;11.73;;;7.03;;
14876;SDS011;69691;48.172;17.070;2023-09-08T13:41:46;8.05;;;6.95;;
14876;SDS011;69691;48.172;17.070;2023-09-08T13:44:13;7.65;;;6.32;;
14876;SDS011;69691;48.172;17.070;2023-09-08T13:46:39;13.10;;;6.70;;
14876;SDS011;69691;48.172;17.070;2023-09-08T13:49:05;12.73;;;6.95;;
14876;SDS011;69691;48.172;17.070;2023-09-08T13:51:31;7.55;;;5.85;;
14876;SDS011;69691;48.172;17.070;2023-09-08T13:53:57;9.07;;;6.35;;
14876;SDS011;69691;48.172;17.070;2023-09-08T13:56:23;12.57;;;6.43;;
14876;SDS011;69691;48.172;17.070;2023-09-08T13:58:49;9.02;;;5.80;;
14876;SDS011;69691;48.172;17.070;2023-09-08T14:01:15;7.75;;;5.68;;
14876;SDS011;69691;48.172;17.070;2023-09-08T14:03:40;9.15;;;5.78;;
14876;SDS011;69691;48.172;17.070;2023-09-08T14:06:06;9.57;;;6.60;;
14876;SDS011;69691;48.172;17.070;2023-09-08T14:08:32;6.25;;;5.53;;
14876;SDS011;69691;48.172;17.070;2023-09-08T14:10:58;6.53;;;5.80;;
14876;SDS011;69691;48.172;17.070;2023-09-08T14:13:26;7.22;;;6.38;;
14876;SDS011;69691;48.172;17.070;2023-09-08T14:15:53;9.45;;;6.32;;
14876;SDS011;69691;48.172;17.070;2023-09-08T14:18:19;9.45;;;6.57;;
14876;SDS011;69691;48.172;17.070;2023-09-08T14:20:45;11.90;;;6.75;;
14876;SDS011;69691;48.172;17.070;2023-09-08T14:23:11;9.98;;;6.35;;
14876;SDS011;69691;48.172;17.070;2023-09-08T14:25:36;9.15;;;6.43;;
14876;SDS011;69691;48.172;17.070;2023-09-08T14:28:02;6.40;;;5.72;;